sensor_id;sensor_type;location;lat;lon;timestamp;P1;durP1;ratioP1;P2;durP2;ratioP2
32826;SDS011;51059;42.058;27.986;2022-09-13T00:00:35;8.37;;;4.90;;
32826;SDS011;51059;42.058;27.986;2022-09-13T00:03:01;6.73;;;4.80;;
32826;SDS011;51059;42.058;27.986;2022-09-13T00:05:27;7.60;;;4.93;;
32826;SDS011;51059;42.058;27.986;2022-09-13T00:07:53;13.10;;;5.30;;
32826;SDS011;51059;42.058;27.986;2022-09-13T00:10:20;12.20;;;5.83;;
32826;SDS011;51059;42.058;27.986;2022-09-13T00:12:48;13.10;;;5.40;;
32826;SDS011;51059;42.058;27.986;2022-09-13T00:15:15;6.10;;;4.70;;
32826;SDS011;51059;42.058;27.986;2022-09-13T00:17:41;7.30;;;5.10;;
32826;SDS011;51059;42.058;27.986;2022-09-13T00:20:07;6.32;;;5.25;;
32826;SDS011;51059;42.058;27.986;2022-09-13T00:22:34;5.33;;;4.83;;
32826;SDS011;51059;42.058;27.986;2022-09-13T00:25:00;9.40;;;4.97;;
32826;SDS011;51059;42.058;27.986;2022-09-13T00:27:26;8.13;;;5.23;;
32826;SDS011;51059;42.058;27.986;2022-09-13T00:29:51;10.20;;;5.07;;
32826;SDS011;51059;42.058;27.986;2022-09-13T00:32:17;8.77;;;4.90;;
32826;SDS011;51059;42.058;27.986;2022-09-13T00:34:43;7.90;;;5.40;;
32826;SDS011;51059;42.058;27.986;2022-09-13T00:37:08;7.00;;;5.40;;
32826;SDS011;51059;42.058;27.986;2022-09-13T00:39:34;7.27;;;5.20;;
32826;SDS011;51059;42.058;27.986;2022-09-13T00:42:00;7.93;;;5.53;;
32826;SDS011;51059;42.058;27.986;2022-09-13T00:53:09;7.57;;;5.53;;
32826;SDS011;51059;42.058;27.986;2022-09-13T00:55:38;9.93;;;5.40;;
32826;SDS011;51059;42.058;27.986;2022-09-13T00:58:09;7.20;;;5.20;;
32826;SDS011;51059;42.058;27.986;2022-09-13T01:00:40;9.43;;;5.33;;
32826;SDS011;51059;42.058;27.986;2022-09-13T01:03:06;8.23;;;5.37;;
32826;SDS011;51059;42.058;27.986;2022-09-13T01:05:34;8.97;;;6.00;;
32826;SDS011;51059;42.058;27.986;2022-09-13T01:08:02;7.03;;;5.23;;
32826;SDS011;51059;42.058;27.986;2022-09-13T01:10:34;11.03;;;5.40;;
32826;SDS011;51059;42.058;27.986;2022-09-13T01:13:11;8.07;;;5.17;;
32826;SDS011;51059;42.058;27.986;2022-09-13T01:15:39;11.00;;;5.13;;
32826;SDS011;51059;42.058;27.986;2022-09-13T01:18:06;11.53;;;5.53;;
32826;SDS011;51059;42.058;27.986;2022-09-13T01:25:57;11.07;;;5.43;;
32826;SDS011;51059;42.058;27.986;2022-09-13T01:29:41;7.20;;;5.53;;
32826;SDS011;51059;42.058;27.986;2022-09-13T01:32:01;11.27;;;5.10;;
32826;SDS011;51059;42.058;27.986;2022-09-13T01:42:28;9.73;;;5.43;;
32826;SDS011;51059;42.058;27.986;2022-09-13T01:47:53;13.50;;;5.13;;
32826;SDS011;51059;42.058;27.986;2022-09-13T01:50:27;10.83;;;5.60;;
32826;SDS011;51059;42.058;27.986;2022-09-13T01:53:06;7.57;;;5.30;;
32826;SDS011;51059;42.058;27.986;2022-09-13T01:55:43;7.80;;;5.60;;
32826;SDS011;51059;42.058;27.986;2022-09-13T02:01:17;8.23;;;5.10;;
32826;SDS011;51059;42.058;27.986;2022-09-13T02:06:20;10.97;;;5.20;;
32826;SDS011;51059;42.058;27.986;2022-09-13T02:08:53;10.07;;;5.60;;
32826;SDS011;51059;42.058;27.986;2022-09-13T02:11:20;15.50;;;5.77;;
32826;SDS011;51059;42.058;27.986;2022-09-13T02:14:09;6.47;;;5.23;;
32826;SDS011;51059;42.058;27.986;2022-09-13T02:16:48;7.33;;;5.67;;
32826;SDS011;51059;42.058;27.986;2022-09-13T02:22:00;6.83;;;4.90;;
32826;SDS011;51059;42.058;27.986;2022-09-13T02:24:30;10.10;;;5.73;;
32826;SDS011;51059;42.058;27.986;2022-09-13T02:26:58;6.40;;;5.40;;
32826;SDS011;51059;42.058;27.986;2022-09-13T02:29:28;7.87;;;5.33;;
32826;SDS011;51059;42.058;27.986;2022-09-13T02:31:55;10.63;;;5.87;;
32826;SDS011;51059;42.058;27.986;2022-09-13T02:34:53;6.07;;;5.50;;
32826;SDS011;51059;42.058;27.986;2022-09-13T02:37:25;9.30;;;5.37;;
32826;SDS011;51059;42.058;27.986;2022-09-13T02:39:56;6.33;;;4.80;;
32826;SDS011;51059;42.058;27.986;2022-09-13T02:42:46;8.70;;;5.20;;
32826;SDS011;51059;42.058;27.986;2022-09-13T02:45:12;6.83;;;5.67;;
32826;SDS011;51059;42.058;27.986;2022-09-13T02:50:36;11.17;;;5.20;;
32826;SDS011;51059;42.058;27.986;2022-09-13T02:53:15;8.67;;;5.40;;
32826;SDS011;51059;42.058;27.986;2022-09-13T02:56:17;7.23;;;5.20;;
32826;SDS011;51059;42.058;27.986;2022-09-13T03:01:17;9.73;;;5.53;;
32826;SDS011;51059;42.058;27.986;2022-09-13T03:03:42;6.47;;;4.67;;
32826;SDS011;51059;42.058;27.986;2022-09-13T03:06:09;6.77;;;4.97;;
32826;SDS011;51059;42.058;27.986;2022-09-13T03:08:34;9.15;;;5.22;;
32826;SDS011;51059;42.058;27.986;2022-09-13T03:24:53;6.93;;;4.70;;
32826;SDS011;51059;42.058;27.986;2022-09-13T03:27:36;8.67;;;4.90;;
32826;SDS011;51059;42.058;27.986;2022-09-13T03:30:22;5.47;;;4.77;;
32826;SDS011;51059;42.058;27.986;2022-09-13T03:32:49;7.23;;;4.87;;
32826;SDS011;51059;42.058;27.986;2022-09-13T03:35:36;6.67;;;5.10;;
32826;SDS011;51059;42.058;27.986;2022-09-13T03:38:08;9.63;;;5.17;;
32826;SDS011;51059;42.058;27.986;2022-09-13T03:40:49;6.03;;;5.07;;
32826;SDS011;51059;42.058;27.986;2022-09-13T03:43:24;4.93;;;4.53;;
32826;SDS011;51059;42.058;27.986;2022-09-13T03:45:57;9.07;;;5.07;;
32826;SDS011;51059;42.058;27.986;2022-09-13T03:48:24;5.23;;;4.73;;
32826;SDS011;51059;42.058;27.986;2022-09-13T03:50:49;9.57;;;4.70;;
32826;SDS011;51059;42.058;27.986;2022-09-13T03:53:20;6.13;;;4.80;;
32826;SDS011;51059;42.058;27.986;2022-09-13T03:55:47;7.07;;;4.67;;
32826;SDS011;51059;42.058;27.986;2022-09-13T03:58:14;7.93;;;4.83;;
32826;SDS011;51059;42.058;27.986;2022-09-13T04:00:41;5.83;;;4.90;;
32826;SDS011;51059;42.058;27.986;2022-09-13T04:03:09;5.63;;;4.83;;
32826;SDS011;51059;42.058;27.986;2022-09-13T04:05:35;5.93;;;4.60;;
32826;SDS011;51059;42.058;27.986;2022-09-13T04:08:01;7.13;;;4.13;;
32826;SDS011;51059;42.058;27.986;2022-09-13T04:10:29;10.13;;;4.23;;
32826;SDS011;51059;42.058;27.986;2022-09-13T04:12:56;6.67;;;4.23;;
32826;SDS011;51059;42.058;27.986;2022-09-13T04:15:22;4.80;;;4.10;;
32826;SDS011;51059;42.058;27.986;2022-09-13T04:17:48;7.73;;;4.30;;
32826;SDS011;51059;42.058;27.986;2022-09-13T04:20:14;7.70;;;4.20;;
32826;SDS011;51059;42.058;27.986;2022-09-13T04:22:40;5.40;;;4.33;;
32826;SDS011;51059;42.058;27.986;2022-09-13T04:25:06;8.33;;;4.03;;
32826;SDS011;51059;42.058;27.986;2022-09-13T04:27:32;6.77;;;4.13;;
32826;SDS011;51059;42.058;27.986;2022-09-13T04:30:00;4.17;;;3.77;;
32826;SDS011;51059;42.058;27.986;2022-09-13T04:32:26;8.77;;;4.13;;
32826;SDS011;51059;42.058;27.986;2022-09-13T04:34:52;6.83;;;4.30;;
32826;SDS011;51059;42.058;27.986;2022-09-13T04:37:18;5.47;;;4.03;;
32826;SDS011;51059;42.058;27.986;2022-09-13T04:39:45;5.80;;;3.90;;
32826;SDS011;51059;42.058;27.986;2022-09-13T04:42:11;9.40;;;4.17;;
32826;SDS011;51059;42.058;27.986;2022-09-13T04:44:37;5.77;;;3.77;;
32826;SDS011;51059;42.058;27.986;2022-09-13T04:47:03;3.87;;;3.40;;
32826;SDS011;51059;42.058;27.986;2022-09-13T04:49:28;3.83;;;3.10;;
32826;SDS011;51059;42.058;27.986;2022-09-13T04:51:54;5.97;;;3.20;;
32826;SDS011;51059;42.058;27.986;2022-09-13T04:54:20;5.90;;;3.37;;
32826;SDS011;51059;42.058;27.986;2022-09-13T04:56:46;3.20;;;2.90;;
32826;SDS011;51059;42.058;27.986;2022-09-13T04:59:12;3.15;;;2.75;;
32826;SDS011;51059;42.058;27.986;2022-09-13T05:01:38;2.95;;;2.58;;
32826;SDS011;51059;42.058;27.986;2022-09-13T05:04:04;5.70;;;3.40;;
32826;SDS011;51059;42.058;27.986;2022-09-13T05:06:31;4.83;;;2.73;;
32826;SDS011;51059;42.058;27.986;2022-09-13T05:08:56;4.57;;;2.80;;
32826;SDS011;51059;42.058;27.986;2022-09-13T05:11:22;3.80;;;2.67;;
32826;SDS011;51059;42.058;27.986;2022-09-13T05:13:49;9.10;;;3.20;;
32826;SDS011;51059;42.058;27.986;2022-09-13T05:16:22;4.65;;;3.40;;
32826;SDS011;51059;42.058;27.986;2022-09-13T05:18:49;4.77;;;2.60;;
32826;SDS011;51059;42.058;27.986;2022-09-13T05:21:15;3.43;;;2.70;;
32826;SDS011;51059;42.058;27.986;2022-09-13T05:23:41;2.85;;;2.50;;
32826;SDS011;51059;42.058;27.986;2022-09-13T05:26:07;6.68;;;2.55;;
32826;SDS011;51059;42.058;27.986;2022-09-13T05:28:33;5.78;;;2.50;;
32826;SDS011;51059;42.058;27.986;2022-09-13T05:31:12;2.78;;;2.58;;
32826;SDS011;51059;42.058;27.986;2022-09-13T05:33:40;4.03;;;2.60;;
32826;SDS011;51059;42.058;27.986;2022-09-13T05:36:06;4.38;;;2.63;;
32826;SDS011;51059;42.058;27.986;2022-09-13T05:38:32;5.88;;;2.60;;
32826;SDS011;51059;42.058;27.986;2022-09-13T05:40:59;5.20;;;2.60;;
32826;SDS011;51059;42.058;27.986;2022-09-13T05:43:26;5.15;;;2.60;;
32826;SDS011;51059;42.058;27.986;2022-09-13T05:46:00;4.75;;;2.50;;
32826;SDS011;51059;42.058;27.986;2022-09-13T05:48:26;6.07;;;2.97;;
32826;SDS011;51059;42.058;27.986;2022-09-13T05:50:53;6.28;;;2.38;;
32826;SDS011;51059;42.058;27.986;2022-09-13T05:53:19;5.70;;;2.50;;
32826;SDS011;51059;42.058;27.986;2022-09-13T05:55:44;25.83;;;4.30;;
32826;SDS011;51059;42.058;27.986;2022-09-13T05:58:10;12.00;;;2.90;;
32826;SDS011;51059;42.058;27.986;2022-09-13T06:00:35;53.70;;;7.35;;
32826;SDS011;51059;42.058;27.986;2022-09-13T06:03:02;21.33;;;4.07;;
32826;SDS011;51059;42.058;27.986;2022-09-13T06:05:27;34.38;;;4.15;;
32826;SDS011;51059;42.058;27.986;2022-09-13T06:07:53;11.10;;;2.70;;
32826;SDS011;51059;42.058;27.986;2022-09-13T06:10:18;16.10;;;2.95;;
32826;SDS011;51059;42.058;27.986;2022-09-13T06:12:44;7.70;;;2.30;;
32826;SDS011;51059;42.058;27.986;2022-09-13T06:15:11;6.75;;;2.28;;
32826;SDS011;51059;42.058;27.986;2022-09-13T06:17:37;16.25;;;2.80;;
32826;SDS011;51059;42.058;27.986;2022-09-13T06:20:03;5.35;;;2.10;;
32826;SDS011;51059;42.058;27.986;2022-09-13T06:22:29;4.80;;;2.20;;
32826;SDS011;51059;42.058;27.986;2022-09-13T06:24:58;11.27;;;4.45;;
32826;SDS011;51059;42.058;27.986;2022-09-13T06:27:24;18.52;;;10.85;;
32826;SDS011;51059;42.058;27.986;2022-09-13T06:29:49;4.10;;;3.13;;
32826;SDS011;51059;42.058;27.986;2022-09-13T06:32:15;5.90;;;2.50;;
32826;SDS011;51059;42.058;27.986;2022-09-13T06:34:40;8.65;;;5.30;;
32826;SDS011;51059;42.058;27.986;2022-09-13T06:37:06;8.98;;;3.10;;
32826;SDS011;51059;42.058;27.986;2022-09-13T06:39:32;5.35;;;4.43;;
32826;SDS011;51059;42.058;27.986;2022-09-13T06:41:58;8.57;;;4.38;;
32826;SDS011;51059;42.058;27.986;2022-09-13T06:44:24;7.45;;;4.60;;
32826;SDS011;51059;42.058;27.986;2022-09-13T06:46:50;9.43;;;3.08;;
32826;SDS011;51059;42.058;27.986;2022-09-13T06:49:15;6.75;;;2.55;;
32826;SDS011;51059;42.058;27.986;2022-09-13T06:51:41;3.20;;;2.50;;
32826;SDS011;51059;42.058;27.986;2022-09-13T06:54:07;4.85;;;2.30;;
32826;SDS011;51059;42.058;27.986;2022-09-13T06:56:33;5.22;;;2.22;;
32826;SDS011;51059;42.058;27.986;2022-09-13T06:59:01;7.55;;;2.42;;
32826;SDS011;51059;42.058;27.986;2022-09-13T07:01:32;4.57;;;2.00;;
32826;SDS011;51059;42.058;27.986;2022-09-13T07:04:01;3.33;;;2.03;;
32826;SDS011;51059;42.058;27.986;2022-09-13T07:06:32;6.00;;;2.08;;
32826;SDS011;51059;42.058;27.986;2022-09-13T07:08:59;6.35;;;2.05;;
32826;SDS011;51059;42.058;27.986;2022-09-13T07:11:28;2.95;;;2.13;;
32826;SDS011;51059;42.058;27.986;2022-09-13T07:13:56;4.38;;;2.00;;
32826;SDS011;51059;42.058;27.986;2022-09-13T07:16:23;2.85;;;1.90;;
32826;SDS011;51059;42.058;27.986;2022-09-13T07:18:55;4.80;;;2.13;;
32826;SDS011;51059;42.058;27.986;2022-09-13T07:21:25;4.70;;;2.28;;
32826;SDS011;51059;42.058;27.986;2022-09-13T07:23:51;8.50;;;2.17;;
32826;SDS011;51059;42.058;27.986;2022-09-13T07:26:18;5.10;;;2.05;;
32826;SDS011;51059;42.058;27.986;2022-09-13T07:28:44;5.68;;;2.10;;
32826;SDS011;51059;42.058;27.986;2022-09-13T07:31:14;5.22;;;2.05;;
32826;SDS011;51059;42.058;27.986;2022-09-13T07:33:44;4.13;;;2.13;;
32826;SDS011;51059;42.058;27.986;2022-09-13T07:36:11;5.20;;;2.00;;
32826;SDS011;51059;42.058;27.986;2022-09-13T07:38:38;2.75;;;1.90;;
32826;SDS011;51059;42.058;27.986;2022-09-13T07:41:05;3.45;;;2.10;;
32826;SDS011;51059;42.058;27.986;2022-09-13T07:43:33;5.43;;;2.13;;
32826;SDS011;51059;42.058;27.986;2022-09-13T07:45:59;4.18;;;2.10;;
32826;SDS011;51059;42.058;27.986;2022-09-13T07:48:27;5.68;;;1.90;;
32826;SDS011;51059;42.058;27.986;2022-09-13T07:53:30;8.60;;;2.35;;
32826;SDS011;51059;42.058;27.986;2022-09-13T07:56:01;3.97;;;1.88;;
32826;SDS011;51059;42.058;27.986;2022-09-13T07:58:32;4.20;;;1.60;;
32826;SDS011;51059;42.058;27.986;2022-09-13T08:03:32;4.22;;;1.90;;
32826;SDS011;51059;42.058;27.986;2022-09-13T08:05:59;7.82;;;2.40;;
32826;SDS011;51059;42.058;27.986;2022-09-13T08:08:25;2.50;;;1.80;;
32826;SDS011;51059;42.058;27.986;2022-09-13T08:10:51;3.25;;;1.80;;
32826;SDS011;51059;42.058;27.986;2022-09-13T08:13:16;4.07;;;1.73;;
32826;SDS011;51059;42.058;27.986;2022-09-13T08:15:42;7.15;;;1.90;;
32826;SDS011;51059;42.058;27.986;2022-09-13T08:18:08;4.38;;;1.75;;
32826;SDS011;51059;42.058;27.986;2022-09-13T08:20:35;6.97;;;1.63;;
32826;SDS011;51059;42.058;27.986;2022-09-13T08:23:02;4.53;;;1.80;;
32826;SDS011;51059;42.058;27.986;2022-09-13T08:25:30;6.20;;;1.85;;
32826;SDS011;51059;42.058;27.986;2022-09-13T08:28:06;4.50;;;1.73;;
32826;SDS011;51059;42.058;27.986;2022-09-13T08:30:33;2.70;;;1.60;;
32826;SDS011;51059;42.058;27.986;2022-09-13T08:33:01;4.53;;;1.63;;
32826;SDS011;51059;42.058;27.986;2022-09-13T08:35:28;3.30;;;1.55;;
32826;SDS011;51059;42.058;27.986;2022-09-13T08:37:54;4.93;;;1.70;;
32826;SDS011;51059;42.058;27.986;2022-09-13T08:40:21;3.15;;;1.98;;
32826;SDS011;51059;42.058;27.986;2022-09-13T08:43:11;4.07;;;1.70;;
32826;SDS011;51059;42.058;27.986;2022-09-13T08:46:09;8.38;;;1.80;;
32826;SDS011;51059;42.058;27.986;2022-09-13T08:48:57;5.82;;;1.70;;
32826;SDS011;51059;42.058;27.986;2022-09-13T08:53:59;4.75;;;1.70;;
32826;SDS011;51059;42.058;27.986;2022-09-13T08:56:40;3.97;;;1.80;;
32826;SDS011;51059;42.058;27.986;2022-09-13T09:07:21;4.10;;;1.70;;
32826;SDS011;51059;42.058;27.986;2022-09-13T09:12:46;8.27;;;1.80;;
32826;SDS011;51059;42.058;27.986;2022-09-13T09:15:16;3.30;;;1.60;;
32826;SDS011;51059;42.058;27.986;2022-09-13T09:20:36;4.90;;;1.60;;
32826;SDS011;51059;42.058;27.986;2022-09-13T09:25:42;2.33;;;1.63;;
32826;SDS011;51059;42.058;27.986;2022-09-13T09:28:12;3.65;;;1.77;;
32826;SDS011;51059;42.058;27.986;2022-09-13T09:30:45;4.47;;;1.65;;
32826;SDS011;51059;42.058;27.986;2022-09-13T09:33:30;5.97;;;2.30;;
32826;SDS011;51059;42.058;27.986;2022-09-13T09:38:48;2.20;;;1.60;;
32826;SDS011;51059;42.058;27.986;2022-09-13T09:41:16;2.17;;;1.75;;
32826;SDS011;51059;42.058;27.986;2022-09-13T09:43:48;4.40;;;1.60;;
32826;SDS011;51059;42.058;27.986;2022-09-13T09:46:19;2.03;;;1.48;;
32826;SDS011;51059;42.058;27.986;2022-09-13T09:48:50;3.17;;;1.75;;
32826;SDS011;51059;42.058;27.986;2022-09-13T09:51:19;6.50;;;1.70;;
32826;SDS011;51059;42.058;27.986;2022-09-13T09:53:49;4.82;;;1.85;;
32826;SDS011;51059;42.058;27.986;2022-09-13T09:58:49;4.20;;;1.90;;
32826;SDS011;51059;42.058;27.986;2022-09-13T10:01:27;4.15;;;1.67;;
32826;SDS011;51059;42.058;27.986;2022-09-13T10:04:14;4.20;;;1.40;;
32826;SDS011;51059;42.058;27.986;2022-09-13T10:06:43;2.42;;;1.40;;
32826;SDS011;51059;42.058;27.986;2022-09-13T10:11:49;6.05;;;1.58;;
32826;SDS011;51059;42.058;27.986;2022-09-13T10:14:50;3.63;;;1.70;;
32826;SDS011;51059;42.058;27.986;2022-09-13T10:17:27;8.10;;;1.60;;
32826;SDS011;51059;42.058;27.986;2022-09-13T10:22:28;6.28;;;1.70;;
32826;SDS011;51059;42.058;27.986;2022-09-13T10:25:08;2.83;;;1.50;;
32826;SDS011;51059;42.058;27.986;2022-09-13T10:27:57;5.35;;;1.50;;
32826;SDS011;51059;42.058;27.986;2022-09-13T10:33:04;3.28;;;1.77;;
32826;SDS011;51059;42.058;27.986;2022-09-13T10:35:31;2.80;;;1.60;;
32826;SDS011;51059;42.058;27.986;2022-09-13T10:37:57;4.18;;;1.50;;
32826;SDS011;51059;42.058;27.986;2022-09-13T10:42:58;6.25;;;2.03;;
32826;SDS011;51059;42.058;27.986;2022-09-13T10:45:27;2.13;;;1.92;;
32826;SDS011;51059;42.058;27.986;2022-09-13T10:47:56;4.10;;;1.60;;
32826;SDS011;51059;42.058;27.986;2022-09-13T10:50:28;4.03;;;1.83;;
32826;SDS011;51059;42.058;27.986;2022-09-13T10:53:00;2.40;;;1.67;;
32826;SDS011;51059;42.058;27.986;2022-09-13T11:06:10;3.22;;;1.65;;
32826;SDS011;51059;42.058;27.986;2022-09-13T11:12:00;3.38;;;1.50;;
32826;SDS011;51059;42.058;27.986;2022-09-13T11:31:31;2.60;;;1.50;;
32826;SDS011;51059;42.058;27.986;2022-09-13T11:39:38;2.90;;;1.60;;
32826;SDS011;51059;42.058;27.986;2022-09-13T11:44:47;2.17;;;1.60;;
32826;SDS011;51059;42.058;27.986;2022-09-13T11:55:27;2.63;;;1.50;;
32826;SDS011;51059;42.058;27.986;2022-09-13T11:57:59;2.42;;;1.30;;
32826;SDS011;51059;42.058;27.986;2022-09-13T12:00:30;1.50;;;1.40;;
32826;SDS011;51059;42.058;27.986;2022-09-13T12:03:00;2.70;;;1.37;;
32826;SDS011;51059;42.058;27.986;2022-09-13T12:05:47;3.40;;;1.40;;
32826;SDS011;51059;42.058;27.986;2022-09-13T12:08:21;3.37;;;1.40;;
32826;SDS011;51059;42.058;27.986;2022-09-13T12:10:59;1.52;;;1.30;;
32826;SDS011;51059;42.058;27.986;2022-09-13T12:13:38;3.10;;;1.30;;
32826;SDS011;51059;42.058;27.986;2022-09-13T12:16:18;4.32;;;1.50;;
32826;SDS011;51059;42.058;27.986;2022-09-13T12:18:48;4.47;;;1.50;;
32826;SDS011;51059;42.058;27.986;2022-09-13T12:21:16;3.43;;;1.40;;
32826;SDS011;51059;42.058;27.986;2022-09-13T12:31:49;2.33;;;1.30;;
32826;SDS011;51059;42.058;27.986;2022-09-13T12:34:22;3.57;;;1.40;;
32826;SDS011;51059;42.058;27.986;2022-09-13T12:36:54;4.30;;;1.60;;
32826;SDS011;51059;42.058;27.986;2022-09-13T12:39:47;1.77;;;1.40;;
32826;SDS011;51059;42.058;27.986;2022-09-13T12:45:07;5.60;;;1.77;;
32826;SDS011;51059;42.058;27.986;2022-09-13T12:57:35;1.98;;;1.40;;
32826;SDS011;51059;42.058;27.986;2022-09-13T13:05:05;4.00;;;1.50;;
32826;SDS011;51059;42.058;27.986;2022-09-13T13:07:40;4.13;;;1.55;;
32826;SDS011;51059;42.058;27.986;2022-09-13T13:10:22;1.58;;;1.40;;
32826;SDS011;51059;42.058;27.986;2022-09-13T13:14:00;3.00;;;1.45;;
32826;SDS011;51059;42.058;27.986;2022-09-13T13:16:03;2.83;;;1.40;;
32826;SDS011;51059;42.058;27.986;2022-09-13T13:31:58;1.63;;;1.50;;
32826;SDS011;51059;42.058;27.986;2022-09-13T13:36:29;2.43;;;1.50;;
32826;SDS011;51059;42.058;27.986;2022-09-13T13:55:00;2.13;;;1.20;;
32826;SDS011;51059;42.058;27.986;2022-09-13T14:00:49;2.73;;;1.53;;
32826;SDS011;51059;42.058;27.986;2022-09-13T14:03:40;4.33;;;1.70;;
32826;SDS011;51059;42.058;27.986;2022-09-13T14:09:35;4.07;;;1.60;;
32826;SDS011;51059;42.058;27.986;2022-09-13T14:14:48;3.03;;;1.60;;
32826;SDS011;51059;42.058;27.986;2022-09-13T14:18:09;1.70;;;1.60;;
32826;SDS011;51059;42.058;27.986;2022-09-13T14:20:26;2.00;;;1.50;;
32826;SDS011;51059;42.058;27.986;2022-09-13T14:23:09;9.00;;;1.83;;
32826;SDS011;51059;42.058;27.986;2022-09-13T14:25:36;3.53;;;1.60;;
32826;SDS011;51059;42.058;27.986;2022-09-13T14:28:01;4.73;;;1.67;;
32826;SDS011;51059;42.058;27.986;2022-09-13T14:30:32;2.00;;;1.47;;
32826;SDS011;51059;42.058;27.986;2022-09-13T14:32:59;2.55;;;1.50;;
32826;SDS011;51059;42.058;27.986;2022-09-13T14:35:27;3.23;;;1.83;;
32826;SDS011;51059;42.058;27.986;2022-09-13T14:38:17;3.77;;;1.50;;
32826;SDS011;51059;42.058;27.986;2022-09-13T14:40:51;1.83;;;1.27;;
32826;SDS011;51059;42.058;27.986;2022-09-13T14:43:21;3.37;;;1.50;;
32826;SDS011;51059;42.058;27.986;2022-09-13T14:45:49;1.77;;;1.40;;
32826;SDS011;51059;42.058;27.986;2022-09-13T14:48:18;4.33;;;2.10;;
32826;SDS011;51059;42.058;27.986;2022-09-13T14:50:47;4.20;;;1.70;;
32826;SDS011;51059;42.058;27.986;2022-09-13T14:53:20;4.43;;;1.60;;
32826;SDS011;51059;42.058;27.986;2022-09-13T14:55:50;6.43;;;1.97;;
32826;SDS011;51059;42.058;27.986;2022-09-13T14:58:19;2.80;;;1.73;;
32826;SDS011;51059;42.058;27.986;2022-09-13T15:00:54;2.55;;;1.50;;
32826;SDS011;51059;42.058;27.986;2022-09-13T15:03:21;3.27;;;1.50;;
32826;SDS011;51059;42.058;27.986;2022-09-13T15:05:54;4.35;;;1.80;;
32826;SDS011;51059;42.058;27.986;2022-09-13T15:11:00;3.25;;;1.80;;
32826;SDS011;51059;42.058;27.986;2022-09-13T15:13:30;2.57;;;1.90;;
32826;SDS011;51059;42.058;27.986;2022-09-13T15:15:57;6.47;;;2.20;;
32826;SDS011;51059;42.058;27.986;2022-09-13T15:18:24;3.37;;;2.00;;
32826;SDS011;51059;42.058;27.986;2022-09-13T15:21:00;3.80;;;1.60;;
32826;SDS011;51059;42.058;27.986;2022-09-13T15:26:18;3.37;;;1.60;;
32826;SDS011;51059;42.058;27.986;2022-09-13T15:31:20;1.97;;;1.53;;
32826;SDS011;51059;42.058;27.986;2022-09-13T15:33:47;3.00;;;1.70;;
32826;SDS011;51059;42.058;27.986;2022-09-13T15:36:13;4.40;;;1.50;;
32826;SDS011;51059;42.058;27.986;2022-09-13T15:38:58;6.03;;;1.90;;
32826;SDS011;51059;42.058;27.986;2022-09-13T15:41:30;3.47;;;2.17;;
32826;SDS011;51059;42.058;27.986;2022-09-13T15:44:01;2.63;;;2.13;;
32826;SDS011;51059;42.058;27.986;2022-09-13T15:46:29;5.93;;;2.90;;
32826;SDS011;51059;42.058;27.986;2022-09-13T15:48:58;3.43;;;2.37;;
32826;SDS011;51059;42.058;27.986;2022-09-13T15:51:26;4.93;;;2.73;;
32826;SDS011;51059;42.058;27.986;2022-09-13T15:53:52;1.80;;;1.70;;
32826;SDS011;51059;42.058;27.986;2022-09-13T15:56:25;1.70;;;1.60;;
32826;SDS011;51059;42.058;27.986;2022-09-13T15:58:54;3.10;;;1.60;;
32826;SDS011;51059;42.058;27.986;2022-09-13T16:01:19;4.73;;;1.80;;
32826;SDS011;51059;42.058;27.986;2022-09-13T16:03:45;4.47;;;1.67;;
32826;SDS011;51059;42.058;27.986;2022-09-13T16:06:10;3.77;;;1.80;;
32826;SDS011;51059;42.058;27.986;2022-09-13T16:08:36;3.57;;;1.80;;
32826;SDS011;51059;42.058;27.986;2022-09-13T16:11:02;4.63;;;1.80;;
32826;SDS011;51059;42.058;27.986;2022-09-13T16:13:29;4.50;;;1.67;;
32826;SDS011;51059;42.058;27.986;2022-09-13T16:15:55;7.60;;;1.90;;
32826;SDS011;51059;42.058;27.986;2022-09-13T16:18:21;7.30;;;2.00;;
32826;SDS011;51059;42.058;27.986;2022-09-13T16:20:47;1.80;;;1.67;;
32826;SDS011;51059;42.058;27.986;2022-09-13T16:23:13;3.53;;;1.80;;
32826;SDS011;51059;42.058;27.986;2022-09-13T16:25:39;2.77;;;1.67;;
32826;SDS011;51059;42.058;27.986;2022-09-13T16:28:05;4.33;;;2.23;;
32826;SDS011;51059;42.058;27.986;2022-09-13T16:30:30;2.40;;;2.00;;
32826;SDS011;51059;42.058;27.986;2022-09-13T16:32:58;3.57;;;1.70;;
32826;SDS011;51059;42.058;27.986;2022-09-13T16:35:27;4.03;;;1.70;;
32826;SDS011;51059;42.058;27.986;2022-09-13T16:37:54;5.40;;;1.73;;
32826;SDS011;51059;42.058;27.986;2022-09-13T16:40:19;2.50;;;1.80;;
32826;SDS011;51059;42.058;27.986;2022-09-13T16:42:45;3.97;;;1.80;;
32826;SDS011;51059;42.058;27.986;2022-09-13T16:45:11;4.27;;;1.97;;
32826;SDS011;51059;42.058;27.986;2022-09-13T16:47:36;3.10;;;1.80;;
32826;SDS011;51059;42.058;27.986;2022-09-13T16:50:03;5.10;;;2.20;;
32826;SDS011;51059;42.058;27.986;2022-09-13T16:52:30;3.40;;;2.20;;
32826;SDS011;51059;42.058;27.986;2022-09-13T16:54:57;5.47;;;2.28;;
32826;SDS011;51059;42.058;27.986;2022-09-13T16:57:23;7.37;;;1.90;;
32826;SDS011;51059;42.058;27.986;2022-09-13T16:59:49;5.37;;;2.00;;
32826;SDS011;51059;42.058;27.986;2022-09-13T17:02:17;3.10;;;2.17;;
32826;SDS011;51059;42.058;27.986;2022-09-13T17:04:43;4.43;;;2.00;;
32826;SDS011;51059;42.058;27.986;2022-09-13T17:07:09;6.37;;;2.37;;
32826;SDS011;51059;42.058;27.986;2022-09-13T17:09:35;5.97;;;2.70;;
32826;SDS011;51059;42.058;27.986;2022-09-13T17:12:01;5.97;;;2.13;;
32826;SDS011;51059;42.058;27.986;2022-09-13T17:14:27;6.37;;;2.10;;
32826;SDS011;51059;42.058;27.986;2022-09-13T17:16:53;8.87;;;2.10;;
32826;SDS011;51059;42.058;27.986;2022-09-13T17:19:21;7.27;;;2.10;;
32826;SDS011;51059;42.058;27.986;2022-09-13T17:21:48;4.97;;;2.17;;
32826;SDS011;51059;42.058;27.986;2022-09-13T17:24:14;3.83;;;2.10;;
32826;SDS011;51059;42.058;27.986;2022-09-13T17:26:41;6.27;;;2.27;;
32826;SDS011;51059;42.058;27.986;2022-09-13T17:29:07;3.70;;;1.90;;
32826;SDS011;51059;42.058;27.986;2022-09-13T17:31:33;4.73;;;2.10;;
32826;SDS011;51059;42.058;27.986;2022-09-13T17:33:59;4.60;;;1.97;;
32826;SDS011;51059;42.058;27.986;2022-09-13T17:36:25;2.83;;;2.07;;
32826;SDS011;51059;42.058;27.986;2022-09-13T17:38:54;3.40;;;2.53;;
32826;SDS011;51059;42.058;27.986;2022-09-13T17:41:21;3.63;;;2.00;;
32826;SDS011;51059;42.058;27.986;2022-09-13T17:43:47;5.83;;;2.00;;
32826;SDS011;51059;42.058;27.986;2022-09-13T17:46:16;5.07;;;2.17;;
32826;SDS011;51059;42.058;27.986;2022-09-13T17:48:47;4.20;;;2.30;;
32826;SDS011;51059;42.058;27.986;2022-09-13T17:51:14;3.40;;;2.03;;
32826;SDS011;51059;42.058;27.986;2022-09-13T17:53:42;4.63;;;2.10;;
32826;SDS011;51059;42.058;27.986;2022-09-13T17:56:10;4.43;;;2.30;;
32826;SDS011;51059;42.058;27.986;2022-09-13T17:58:36;8.20;;;2.70;;
32826;SDS011;51059;42.058;27.986;2022-09-13T18:01:03;3.10;;;2.60;;
32826;SDS011;51059;42.058;27.986;2022-09-13T18:03:30;6.33;;;2.97;;
32826;SDS011;51059;42.058;27.986;2022-09-13T18:05:57;5.40;;;2.87;;
32826;SDS011;51059;42.058;27.986;2022-09-13T18:08:27;5.10;;;2.80;;
32826;SDS011;51059;42.058;27.986;2022-09-13T18:10:54;4.30;;;2.37;;
32826;SDS011;51059;42.058;27.986;2022-09-13T18:13:19;3.87;;;2.60;;
32826;SDS011;51059;42.058;27.986;2022-09-13T18:16:08;3.00;;;2.70;;
32826;SDS011;51059;42.058;27.986;2022-09-13T18:18:35;3.53;;;2.47;;
32826;SDS011;51059;42.058;27.986;2022-09-13T18:21:02;4.70;;;2.50;;
32826;SDS011;51059;42.058;27.986;2022-09-13T18:23:27;2.70;;;2.40;;